createdAt,value
2023-01-26T00:00:53.936Z,-1.30
2023-01-26T00:03:26.075Z,-1.30
2023-01-26T00:05:55.829Z,-1.40
2023-01-26T00:08:25.303Z,-1.30
2023-01-26T00:10:56.487Z,-1.30
2023-01-26T00:13:25.910Z,-1.30
2023-01-26T00:15:55.614Z,-1.20
2023-01-26T00:18:24.910Z,-1.20
2023-01-26T00:20:58.315Z,-1.20
2023-01-26T00:23:28.769Z,-1.20
2023-01-26T00:25:59.931Z,-1.30
2023-01-26T00:28:30.476Z,-1.40
2023-01-26T00:31:05.537Z,-1.40
2023-01-26T00:33:35.227Z,-1.30
2023-01-26T00:36:05.172Z,-1.30
2023-01-26T00:38:34.582Z,-1.20
2023-01-26T00:41:05.910Z,-1.20
2023-01-26T00:43:35.537Z,-1.20
2023-01-26T00:46:05.243Z,-1.20
2023-01-26T00:48:34.658Z,-1.20
2023-01-26T00:51:04.265Z,-1.20
2023-01-26T00:53:33.653Z,-1.20
2023-01-26T00:56:04.909Z,-1.20
2023-01-26T00:58:34.318Z,-1.20
2023-01-26T01:01:04.345Z,-1.10
2023-01-26T01:03:33.829Z,-1.10
2023-01-26T01:06:03.511Z,-1.20
2023-01-26T01:08:32.857Z,-1.20
2023-01-26T01:11:13.021Z,-1.20
2023-01-26T01:13:42.820Z,-1.20
2023-01-26T01:16:14.849Z,-1.30
2023-01-26T01:18:45.075Z,-1.20
2023-01-26T01:21:16.896Z,-1.30
2023-01-26T01:23:46.544Z,-1.20
2023-01-26T01:26:18.818Z,-1.20
2023-01-26T01:28:48.293Z,-1.30
2023-01-26T01:31:18.783Z,-1.30
2023-01-26T01:33:48.149Z,-1.30
2023-01-26T01:36:19.284Z,-1.30
2023-01-26T01:38:48.975Z,-1.30
2023-01-26T01:41:22.977Z,-1.20
2023-01-26T01:43:52.767Z,-1.20
2023-01-26T01:46:33.162Z,-1.20
2023-01-26T01:49:08.374Z,-1.10
2023-01-26T01:51:43.753Z,-1.20
2023-01-26T01:54:16.487Z,-1.20
2023-01-26T01:56:50.913Z,-1.30
2023-01-26T01:59:22.659Z,-1.30
2023-01-26T02:01:54.444Z,-1.20
2023-01-26T02:04:25.675Z,-1.20
2023-01-26T02:07:00.138Z,-1.20
2023-01-26T02:09:52.117Z,-1.20
2023-01-26T02:12:26.348Z,-1.10
2023-01-26T02:14:55.818Z,-1.20
2023-01-26T02:17:25.870Z,-1.10
2023-01-26T02:20:04.740Z,-1.10
2023-01-26T02:22:42.548Z,-1.10
2023-01-26T02:25:20.376Z,-1.00
2023-01-26T02:27:54.753Z,-1.00
2023-01-26T02:30:25.647Z,-1.10
2023-01-26T02:32:54.979Z,-1.10
2023-01-26T02:35:24.508Z,-1.10
2023-01-26T02:37:54.210Z,-1.10
2023-01-26T02:40:32.586Z,-1.10
2023-01-26T02:43:03.097Z,-1.00
2023-01-26T02:45:37.803Z,-1.10
2023-01-26T02:48:08.324Z,-1.10
2023-01-26T02:50:36.862Z,-1.20
2023-01-26T02:53:06.554Z,-1.20
2023-01-26T02:55:36.004Z,-1.20
2023-01-26T02:58:07.942Z,-1.20
2023-01-26T03:00:41.027Z,-1.10
2023-01-26T03:03:15.756Z,-1.10
2023-01-26T03:05:45.325Z,-1.20
2023-01-26T03:08:15.010Z,-1.20
2023-01-26T03:10:44.293Z,-1.20
2023-01-26T03:13:15.726Z,-1.20
2023-01-26T03:15:52.938Z,-1.20
2023-01-26T03:18:42.100Z,-1.20
2023-01-26T03:21:28.647Z,-1.20
2023-01-26T03:24:15.845Z,-1.20
2023-01-26T03:27:02.802Z,-1.20
2023-01-26T03:29:34.456Z,-1.10
2023-01-26T03:32:03.767Z,-1.10
2023-01-26T03:34:33.749Z,-1.10
2023-01-26T03:37:03.076Z,-1.10
2023-01-26T03:39:49.836Z,-1.10
2023-01-26T03:42:36.653Z,-1.10
2023-01-26T03:45:26.305Z,-1.00
2023-01-26T03:48:12.886Z,-1.10
2023-01-26T03:51:00.047Z,-1.00
2023-01-26T03:53:46.488Z,-1.00
2023-01-26T03:56:22.426Z,-1.00
2023-01-26T03:58:53.867Z,-1.00
2023-01-26T04:01:28.325Z,-1.00
2023-01-26T04:04:15.930Z,-1.00
2023-01-26T04:07:04.662Z,-1.00
2023-01-26T04:09:34.797Z,-1.10
2023-01-26T04:12:05.544Z,-1.10
2023-01-26T04:14:51.829Z,-1.00
2023-01-26T04:17:40.403Z,-1.10
2023-01-26T04:20:28.114Z,-1.00
2023-01-26T04:22:57.733Z,-1.00
2023-01-26T04:25:27.299Z,-0.90
2023-01-26T04:27:57.321Z,-0.90
2023-01-26T04:30:26.733Z,-1.00
2023-01-26T04:32:59.576Z,-0.90
2023-01-26T04:35:28.878Z,-0.90
2023-01-26T04:37:58.833Z,-0.90
2023-01-26T04:40:28.174Z,-0.90
2023-01-26T04:42:58.181Z,-1.00
2023-01-26T04:45:27.501Z,-0.90
2023-01-26T04:47:58.686Z,-1.00
2023-01-26T04:50:28.034Z,-0.90
2023-01-26T04:52:58.654Z,-1.00
2023-01-26T04:55:27.977Z,-1.00
2023-01-26T04:57:58.703Z,-1.00
2023-01-26T05:00:27.964Z,-1.00
2023-01-26T05:02:59.076Z,-1.10
2023-01-26T05:05:28.385Z,-1.10
2023-01-26T05:07:58.395Z,-1.10
2023-01-26T05:10:27.893Z,-1.10
2023-01-26T05:12:57.708Z,-1.10
2023-01-26T05:15:27.238Z,-1.00
2023-01-26T05:18:00.323Z,-1.00
2023-01-26T05:20:29.779Z,-1.00
2023-01-26T05:22:59.550Z,-1.10
2023-01-26T05:25:29.738Z,-1.00
2023-01-26T05:27:59.494Z,-1.00
2023-01-26T05:30:28.957Z,-1.00
2023-01-26T05:33:04.431Z,-1.00
2023-01-26T05:35:34.228Z,-1.00
2023-01-26T05:38:03.991Z,-1.00
2023-01-26T05:40:33.443Z,-1.00
2023-01-26T05:43:03.522Z,-1.00
2023-01-26T05:45:33.029Z,-1.10
2023-01-26T05:48:04.357Z,-1.10
2023-01-26T05:50:34.161Z,-1.10
2023-01-26T05:53:04.462Z,-1.10
2023-01-26T05:55:33.814Z,-1.10
2023-01-26T05:58:03.677Z,-1.10
2023-01-26T06:00:32.947Z,-1.10
2023-01-26T06:03:04.026Z,-1.10
2023-01-26T06:05:33.444Z,-1.10
2023-01-26T06:08:03.094Z,-1.10
2023-01-26T06:10:32.385Z,-1.10
2023-01-26T06:13:03.231Z,-1.00
2023-01-26T06:15:32.512Z,-1.10
2023-01-26T06:18:04.579Z,-1.10
2023-01-26T06:20:33.980Z,-1.00
2023-01-26T06:23:03.836Z,-1.10
2023-01-26T06:25:33.105Z,-1.10
2023-01-26T06:28:03.481Z,-1.00
2023-01-26T06:30:33.307Z,-0.90
2023-01-26T06:33:04.555Z,-1.00
2023-01-26T06:35:36.272Z,-1.10
2023-01-26T06:38:06.246Z,-1.00
2023-01-26T06:40:35.590Z,-1.00
2023-01-26T06:43:05.354Z,-1.00
2023-01-26T06:45:34.764Z,-1.00
2023-01-26T06:48:06.279Z,-1.10
2023-01-26T06:50:37.228Z,-1.00
2023-01-26T06:53:31.840Z,-1.00
2023-01-26T06:56:01.267Z,-1.00
2023-01-26T06:58:31.083Z,-1.00
2023-01-26T07:01:01.734Z,-1.10
2023-01-26T07:03:32.506Z,-1.00
2023-01-26T07:06:01.893Z,-1.00
2023-01-26T07:08:31.794Z,-0.90
2023-01-26T07:11:01.070Z,-1.00
2023-01-26T07:13:30.981Z,-1.00
2023-01-26T07:16:03.258Z,-1.00
2023-01-26T07:18:34.723Z,-1.00
2023-01-26T07:21:03.959Z,-1.00
2023-01-26T07:23:35.160Z,-1.00
2023-01-26T07:26:05.162Z,-0.80
2023-01-26T07:28:36.519Z,-0.80
2023-01-26T07:31:08.168Z,-0.90
2023-01-26T07:33:39.241Z,-0.80
2023-01-26T07:36:08.681Z,-0.80
2023-01-26T07:38:38.973Z,-0.70
2023-01-26T07:41:10.472Z,-0.70
2023-01-26T07:43:41.576Z,-0.70
2023-01-26T07:46:12.512Z,-0.80
2023-01-26T07:48:43.735Z,-0.70
2023-01-26T07:51:13.176Z,-0.80
2023-01-26T07:53:43.880Z,-0.70
2023-01-26T07:56:14.699Z,-0.60
2023-01-26T07:58:44.660Z,-0.60
2023-01-26T08:01:15.504Z,-0.60
2023-01-26T08:03:47.034Z,-0.60
2023-01-26T08:06:17.315Z,-0.60
2023-01-26T08:08:47.069Z,-0.50
2023-01-26T08:11:16.502Z,-0.50
2023-01-26T08:13:46.968Z,-0.60
2023-01-26T08:16:17.331Z,-0.50
2023-01-26T08:18:49.114Z,-0.50
2023-01-26T08:21:19.523Z,-0.50
2023-01-26T08:23:51.684Z,-0.40
2023-01-26T08:26:22.340Z,-0.40
2023-01-26T08:28:51.904Z,-0.40
2023-01-26T08:31:22.943Z,-0.60
2023-01-26T08:33:55.513Z,-0.60
2023-01-26T08:36:25.248Z,-0.50
2023-01-26T08:38:56.215Z,-0.50
2023-01-26T08:41:25.640Z,-0.40
2023-01-26T08:43:55.469Z,-0.50
2023-01-26T08:46:24.875Z,-0.40
2023-01-26T08:48:58.252Z,-0.40
2023-01-26T08:51:29.557Z,-0.50
2023-01-26T08:53:59.235Z,-0.50
2023-01-26T08:56:28.566Z,-0.50
2023-01-26T08:58:58.411Z,-0.50
2023-01-26T09:01:28.219Z,-0.50
2023-01-26T09:04:00.446Z,-0.50
2023-01-26T09:06:30.879Z,-0.50
2023-01-26T09:09:00.562Z,-0.40
2023-01-26T09:11:29.942Z,-0.50
2023-01-26T09:13:59.913Z,-0.50
2023-01-26T09:16:29.920Z,-0.40
2023-01-26T09:19:01.623Z,-0.30
2023-01-26T09:21:31.236Z,-0.30
2023-01-26T09:24:00.969Z,-0.10
2023-01-26T09:26:31.760Z,-0.10
2023-01-26T09:29:01.097Z,0.00
2023-01-26T09:31:30.492Z,0.00
2023-01-26T09:34:01.808Z,0.00
2023-01-26T09:36:31.107Z,0.00
2023-01-26T09:39:00.995Z,0.00
2023-01-26T09:41:53.533Z,0.00
2023-01-26T09:44:26.987Z,0.10
2023-01-26T09:47:13.346Z,0.20
2023-01-26T09:49:51.029Z,0.10
2023-01-26T09:52:31.005Z,0.10
2023-01-26T09:55:02.432Z,0.00
2023-01-26T09:57:35.454Z,0.10
2023-01-26T10:00:09.578Z,0.20
2023-01-26T10:02:53.254Z,0.20
2023-01-26T10:05:33.784Z,0.30
2023-01-26T10:08:03.877Z,0.30
2023-01-26T10:10:46.039Z,0.30
2023-01-26T10:13:17.409Z,0.30
2023-01-26T10:15:49.761Z,0.40
2023-01-26T10:18:23.651Z,0.40
2023-01-26T10:20:57.401Z,0.40
2023-01-26T10:23:29.921Z,0.30
2023-01-26T10:26:09.327Z,0.50
2023-01-26T10:28:39.025Z,0.40
2023-01-26T10:31:16.694Z,0.30
2023-01-26T10:33:53.351Z,0.40
2023-01-26T10:36:24.844Z,0.40
2023-01-26T10:38:54.715Z,0.50
2023-01-26T10:41:29.406Z,0.50
2023-01-26T10:44:00.430Z,0.60
2023-01-26T10:46:35.975Z,0.50
2023-01-26T10:49:16.849Z,0.60
2023-01-26T10:52:06.503Z,0.50
2023-01-26T10:54:37.265Z,0.60
2023-01-26T10:57:15.902Z,0.60
2023-01-26T10:59:53.015Z,0.60
2023-01-26T11:02:28.195Z,0.40
2023-01-26T11:05:20.114Z,0.50
2023-01-26T11:07:55.496Z,0.50
2023-01-26T11:10:28.882Z,0.40
2023-01-26T11:13:19.525Z,0.40
2023-01-26T11:15:52.557Z,0.50
2023-01-26T11:18:34.558Z,0.40
2023-01-26T11:21:08.462Z,0.50
2023-01-26T11:24:01.084Z,0.40
2023-01-26T11:26:55.460Z,0.50
2023-01-26T11:29:43.255Z,0.70
2023-01-26T11:32:23.751Z,0.60
2023-01-26T11:35:05.824Z,0.70
2023-01-26T11:37:46.277Z,0.70
2023-01-26T11:40:35.792Z,0.70
2023-01-26T11:43:26.575Z,0.60
2023-01-26T11:46:34.977Z,0.50
2023-01-26T11:49:19.761Z,0.50
2023-01-26T11:52:05.588Z,0.60
2023-01-26T11:54:50.549Z,0.60
2023-01-26T11:57:29.275Z,0.50
2023-01-26T12:00:04.456Z,0.50
2023-01-26T12:02:37.847Z,0.50
2023-01-26T12:05:15.713Z,0.50
2023-01-26T12:07:56.025Z,0.50
2023-01-26T12:10:31.487Z,0.40
2023-01-26T12:13:10.021Z,0.40
2023-01-26T12:15:44.777Z,0.40
2023-01-26T12:18:22.086Z,0.40
2023-01-26T12:20:55.559Z,0.30
2023-01-26T12:23:33.688Z,0.20
2023-01-26T12:26:08.931Z,0.20
2023-01-26T12:28:48.954Z,0.20
2023-01-26T12:31:24.018Z,0.20
2023-01-26T12:33:56.337Z,0.30
2023-01-26T12:36:38.170Z,0.30
2023-01-26T12:39:14.886Z,0.20
2023-01-26T12:42:14.696Z,0.20
2023-01-26T12:44:52.049Z,0.20
2023-01-26T12:47:29.837Z,0.20
2023-01-26T12:50:04.148Z,0.30
2023-01-26T12:52:59.460Z,0.10
2023-01-26T12:55:33.186Z,0.20
2023-01-26T12:58:05.423Z,0.20
2023-01-26T13:00:38.288Z,0.10
2023-01-26T13:03:17.775Z,0.10
2023-01-26T13:05:58.628Z,0.10
2023-01-26T13:08:54.631Z,0.10
2023-01-26T13:11:52.818Z,0.10
2023-01-26T13:14:32.361Z,0.10
2023-01-26T13:17:34.767Z,0.10
2023-01-26T13:20:42.353Z,0.20
2023-01-26T13:23:52.489Z,0.20
2023-01-26T13:26:57.416Z,0.20
2023-01-26T13:29:36.421Z,0.20
2023-01-26T13:33:03.273Z,0.20
2023-01-26T13:35:37.211Z,0.20
2023-01-26T13:38:16.087Z,0.20
2023-01-26T13:40:49.958Z,0.20
2023-01-26T13:43:27.490Z,0.30
2023-01-26T13:46:12.981Z,0.20
2023-01-26T13:48:48.457Z,0.20
2023-01-26T13:51:22.117Z,0.20
2023-01-26T13:53:58.421Z,0.20
2023-01-26T13:56:31.314Z,0.30
2023-01-26T13:59:13.181Z,0.30
2023-01-26T14:01:44.673Z,0.30
2023-01-26T14:04:20.832Z,0.30
2023-01-26T14:06:57.762Z,0.30
2023-01-26T14:09:30.049Z,0.30
2023-01-26T14:12:06.009Z,0.20
2023-01-26T14:14:37.482Z,0.40
2023-01-26T14:17:25.175Z,0.30
2023-01-26T14:19:54.523Z,0.30
2023-01-26T14:22:26.039Z,0.30
2023-01-26T14:24:55.551Z,0.20
2023-01-26T14:27:33.188Z,0.20
2023-01-26T14:30:05.306Z,0.20
2023-01-26T14:32:35.125Z,0.20
2023-01-26T14:35:04.762Z,0.20
2023-01-26T14:37:35.958Z,0.20
2023-01-26T14:40:32.157Z,0.20
2023-01-26T14:43:02.170Z,0.20
2023-01-26T14:45:33.526Z,0.20
2023-01-26T14:48:09.237Z,0.30
2023-01-26T14:50:40.950Z,0.20
2023-01-26T14:53:21.386Z,0.20
2023-01-26T14:55:52.821Z,0.20
2023-01-26T14:58:26.797Z,0.20
2023-01-26T15:00:58.785Z,0.20
2023-01-26T15:03:31.859Z,0.20
2023-01-26T15:06:18.362Z,0.30
2023-01-26T15:09:04.452Z,0.30
2023-01-26T15:11:56.692Z,0.20
2023-01-26T15:14:39.057Z,0.20
2023-01-26T15:17:08.516Z,0.30
2023-01-26T15:19:43.304Z,0.30
2023-01-26T15:22:23.321Z,0.30
2023-01-26T15:25:07.480Z,0.20
2023-01-26T15:27:38.099Z,0.30
2023-01-26T15:30:18.335Z,0.30
2023-01-26T15:32:47.762Z,0.30
2023-01-26T15:35:23.185Z,0.20
2023-01-26T15:38:02.238Z,0.20
2023-01-26T15:40:34.202Z,0.30
2023-01-26T15:43:16.064Z,0.30
2023-01-26T15:45:52.523Z,0.30
2023-01-26T15:48:22.649Z,0.20
2023-01-26T15:50:53.047Z,0.20
2023-01-26T15:53:23.691Z,0.30
2023-01-26T15:55:56.428Z,0.20
2023-01-26T15:58:26.363Z,0.30
2023-01-26T16:00:56.045Z,0.30
2023-01-26T16:03:25.502Z,0.20
2023-01-26T16:05:55.550Z,0.20
2023-01-26T16:08:25.133Z,0.20
2023-01-26T16:10:57.409Z,0.30
2023-01-26T16:13:26.706Z,0.30
2023-01-26T16:15:56.877Z,0.30
2023-01-26T16:18:26.339Z,0.30
2023-01-26T16:20:56.049Z,0.20
2023-01-26T16:23:27.596Z,0.30
2023-01-26T16:25:58.843Z,0.30
2023-01-26T16:28:28.347Z,0.30
2023-01-26T16:31:02.362Z,0.20
2023-01-26T16:33:31.899Z,0.30
2023-01-26T16:36:02.049Z,0.30
2023-01-26T16:38:31.579Z,0.30
2023-01-26T16:41:02.874Z,0.30
2023-01-26T16:43:32.601Z,0.40
2023-01-26T16:46:02.301Z,0.30
2023-01-26T16:48:35.177Z,0.40
2023-01-26T16:51:16.424Z,0.40
2023-01-26T16:53:46.128Z,0.40
2023-01-26T16:56:18.829Z,0.40
2023-01-26T16:58:48.301Z,0.40
2023-01-26T17:01:24.603Z,0.30
2023-01-26T17:03:54.181Z,0.30
2023-01-26T17:06:25.092Z,0.30
2023-01-26T17:08:54.447Z,0.40
2023-01-26T17:11:28.370Z,0.40
2023-01-26T17:13:59.474Z,0.40
2023-01-26T17:16:32.988Z,0.50
2023-01-26T17:19:02.841Z,0.50
2023-01-26T17:21:32.953Z,0.40
2023-01-26T17:24:02.268Z,0.50
2023-01-26T17:26:33.523Z,0.50
2023-01-26T17:29:03.605Z,0.40
2023-01-26T17:31:34.686Z,0.50
2023-01-26T17:34:04.240Z,0.50
2023-01-26T17:36:34.280Z,0.60
2023-01-26T17:39:04.106Z,0.60
2023-01-26T17:41:35.382Z,0.60
2023-01-26T17:44:04.603Z,0.60
2023-01-26T17:46:34.734Z,0.60
2023-01-26T17:49:04.120Z,0.60
2023-01-26T17:51:33.776Z,0.60
2023-01-26T17:54:03.694Z,0.60
2023-01-26T17:56:34.940Z,0.60
2023-01-26T17:59:04.534Z,0.60
2023-01-26T18:01:34.182Z,0.60
2023-01-26T18:04:03.937Z,0.60
2023-01-26T18:06:33.748Z,0.60
2023-01-26T18:09:03.200Z,0.70
2023-01-26T18:11:33.252Z,0.60
2023-01-26T18:14:04.533Z,0.60
2023-01-26T18:16:34.289Z,0.60
2023-01-26T18:19:04.764Z,0.60
2023-01-26T18:21:36.211Z,0.70
2023-01-26T18:24:06.039Z,0.70
2023-01-26T18:26:38.994Z,0.70
2023-01-26T18:29:10.982Z,0.70
2023-01-26T18:31:42.642Z,0.70
2023-01-26T18:34:13.413Z,0.70
2023-01-26T18:36:42.788Z,0.70
2023-01-26T18:39:17.141Z,0.70
2023-01-26T18:41:46.963Z,0.70
2023-01-26T18:44:18.719Z,0.70
2023-01-26T18:46:48.594Z,0.70
2023-01-26T18:49:18.208Z,0.70
2023-01-26T18:51:49.794Z,0.70
2023-01-26T18:54:20.395Z,0.60
2023-01-26T18:56:50.597Z,0.60
2023-01-26T18:59:23.017Z,0.60
2023-01-26T19:01:53.143Z,0.60
2023-01-26T19:04:22.726Z,0.60
2023-01-26T19:06:52.787Z,0.50
2023-01-26T19:09:22.834Z,0.50
2023-01-26T19:11:52.823Z,0.60
2023-01-26T19:14:23.674Z,0.60
2023-01-26T19:16:54.218Z,0.50
2023-01-26T19:19:23.696Z,0.50
2023-01-26T19:21:53.583Z,0.50
2023-01-26T19:24:23.162Z,0.50
2023-01-26T19:26:53.406Z,0.50
2023-01-26T19:29:24.196Z,0.60
2023-01-26T19:31:55.021Z,0.60
2023-01-26T19:34:24.702Z,0.60
2023-01-26T19:36:54.330Z,0.70
2023-01-26T19:39:23.838Z,0.70
2023-01-26T19:41:54.042Z,0.70
2023-01-26T19:44:25.776Z,0.70
2023-01-26T19:46:56.152Z,0.60
2023-01-26T19:49:25.499Z,0.70
2023-01-26T19:51:56.899Z,0.60
2023-01-26T19:54:26.326Z,0.70
2023-01-26T19:56:56.481Z,0.70
2023-01-26T19:59:28.130Z,0.60
2023-01-26T20:02:00.471Z,0.60
2023-01-26T20:04:30.137Z,0.70
2023-01-26T20:07:02.282Z,0.70
2023-01-26T20:09:34.853Z,0.70
2023-01-26T20:12:06.410Z,0.70
2023-01-26T20:14:37.296Z,0.70
2023-01-26T20:17:09.776Z,0.70
2023-01-26T20:19:41.361Z,0.70
2023-01-26T20:22:12.903Z,0.80
2023-01-26T20:24:42.707Z,0.80
2023-01-26T20:27:14.835Z,0.80
2023-01-26T20:29:45.809Z,0.80
2023-01-26T20:32:16.122Z,0.80
2023-01-26T20:34:45.956Z,0.80
2023-01-26T20:37:15.864Z,0.80
2023-01-26T20:39:47.137Z,0.80
2023-01-26T20:42:19.137Z,0.80
2023-01-26T20:44:50.031Z,0.80
2023-01-26T20:47:20.999Z,0.90
2023-01-26T20:49:51.317Z,0.90
2023-01-26T20:52:22.273Z,0.90
2023-01-26T20:54:52.063Z,0.90
2023-01-26T20:57:21.824Z,0.90
2023-01-26T20:59:52.904Z,0.90
2023-01-26T21:02:23.291Z,0.90
2023-01-26T21:04:54.485Z,0.90
2023-01-26T21:07:25.071Z,0.90
2023-01-26T21:09:54.341Z,0.90
2023-01-26T21:12:24.371Z,0.90
2023-01-26T21:14:55.392Z,0.90
2023-01-26T21:17:25.177Z,1.00
2023-01-26T21:19:54.427Z,0.90
2023-01-26T21:22:24.376Z,1.00
2023-01-26T21:24:53.890Z,1.00
2023-01-26T21:27:23.962Z,1.00
2023-01-26T21:29:55.549Z,1.00
2023-01-26T21:32:25.686Z,1.00
2023-01-26T21:34:57.391Z,1.00
2023-01-26T21:37:27.399Z,1.00
2023-01-26T21:39:56.800Z,1.00
2023-01-26T21:42:27.050Z,1.00
2023-01-26T21:45:15.085Z,1.10
2023-01-26T21:47:44.749Z,1.10
2023-01-26T21:50:14.309Z,1.10
2023-01-26T21:52:59.105Z,1.10
2023-01-26T21:55:28.839Z,1.10
2023-01-26T21:58:15.574Z,1.10
2023-01-26T22:00:46.722Z,1.10
2023-01-26T22:03:16.585Z,1.00
2023-01-26T22:05:53.777Z,1.00
2023-01-26T22:08:23.939Z,1.00
2023-01-26T22:10:56.725Z,1.00
2023-01-26T22:13:27.263Z,1.10
2023-01-26T22:16:04.295Z,1.00
2023-01-26T22:18:34.241Z,1.00
2023-01-26T22:21:04.131Z,1.10
2023-01-26T22:23:34.587Z,1.10
2023-01-26T22:26:06.598Z,1.10
2023-01-26T22:28:37.287Z,1.10
2023-01-26T22:31:09.474Z,1.00
2023-01-26T22:33:39.158Z,1.10
2023-01-26T22:36:10.704Z,1.20
2023-01-26T22:38:40.819Z,1.20
2023-01-26T22:41:13.661Z,1.20
2023-01-26T22:43:44.073Z,1.20
2023-01-26T22:46:14.803Z,1.20
2023-01-26T22:48:44.236Z,1.20
2023-01-26T22:51:18.001Z,1.20
2023-01-26T22:53:49.350Z,1.20
2023-01-26T22:56:19.489Z,1.20
2023-01-26T22:58:58.004Z,1.20
2023-01-26T23:01:31.514Z,1.30
2023-01-26T23:04:01.830Z,1.20
2023-01-26T23:06:31.691Z,1.20
2023-01-26T23:09:04.910Z,1.20
2023-01-26T23:11:34.262Z,1.20
2023-01-26T23:14:04.519Z,1.20
2023-01-26T23:16:35.272Z,1.20
2023-01-26T23:19:05.356Z,1.30
2023-01-26T23:21:35.041Z,1.20
2023-01-26T23:24:04.957Z,1.20
2023-01-26T23:26:34.433Z,1.30
2023-01-26T23:29:04.232Z,1.30
2023-01-26T23:31:35.209Z,1.30
2023-01-26T23:34:04.915Z,1.20
2023-01-26T23:36:34.380Z,1.20
2023-01-26T23:39:04.070Z,1.30
2023-01-26T23:41:33.482Z,1.30
2023-01-26T23:44:03.282Z,1.30
2023-01-26T23:46:32.784Z,1.30
2023-01-26T23:49:04.270Z,1.30
2023-01-26T23:51:33.181Z,1.30
2023-01-26T23:54:02.957Z,1.30
2023-01-26T23:56:32.310Z,1.30
2023-01-26T23:59:01.944Z,1.40
